Time;durP1;ratioP1;P1;durP2;ratioP2;P2;SDS_P1;SDS_P2;PMS_P1;PMS_P2;Temp;Humidity;BMP_temperature;BMP_pressure;BME280_temperature;BME280_humidity;BME280_pressure;Samples;Min_cycle;Max_cycle;Signal;HPM_P1;HPM_P2
2024/01/21 00:00:58;;;;;;;5.68;2.65;;;1.80;99.90;;;;;;5032107;28;20033;-69
2024/01/21 00:03:24;;;;;;;10.93;4.18;;;1.80;99.90;;;;;;5033497;28;20022;-70
2024/01/21 00:05:50;;;;;;;6.50;3.65;;;1.80;99.90;;;;;;5034544;28;20030;-69
2024/01/21 00:08:15;;;;;;;11.88;4.93;;;1.80;99.90;;;;;;5034576;28;20021;-69
2024/01/21 00:10:41;;;;;;;12.40;5.55;;;1.80;99.90;;;;;;5034606;28;20053;-69
2024/01/21 00:13:06;;;;;;;13.85;6.18;;;1.80;99.90;;;;;;5033371;28;20017;-70
2024/01/21 00:15:32;;;;;;;9.18;4.82;;;1.80;99.90;;;;;;5036497;28;20133;-70
2024/01/21 00:17:57;;;;;;;8.57;4.25;;;1.80;99.90;;;;;;5041343;28;20041;-70
2024/01/21 00:20:23;;;;;;;10.68;4.50;;;1.80;99.90;;;;;;5045262;28;20151;-70
2024/01/21 00:22:49;;;;;;;1.40;0.98;;;1.80;99.90;;;;;;5047524;28;20462;-70
2024/01/21 00:25:14;;;;;;;10.88;4.32;;;1.80;99.90;;;;;;5038501;28;20057;-70
2024/01/21 00:27:40;;;;;;;15.07;6.38;;;1.80;99.90;;;;;;5050958;28;20055;-70
2024/01/21 00:30:06;;;;;;;2.45;0.85;;;1.80;99.90;;;;;;5041277;28;20060;-71
2024/01/21 00:32:32;;;;;;;5.57;4.35;;;1.70;99.90;;;;;;5042566;28;20061;-70
2024/01/21 00:34:57;;;;;;;3.42;2.40;;;1.80;99.90;;;;;;5047893;28;20558;-70
2024/01/21 00:37:23;;;;;;;6.53;2.95;;;1.80;99.90;;;;;;5037683;28;20043;-70
2024/01/21 00:39:48;;;;;;;9.05;3.55;;;1.80;99.90;;;;;;5050156;28;20029;-70
2024/01/21 00:46:05;;;;;;;9.02;3.60;;;1.80;99.90;;;;;;5032559;28;20088;-70
2024/01/21 00:48:30;;;;;;;4.55;3.03;;;1.80;99.90;;;;;;5034374;28;20029;-69
2024/01/21 00:50:56;;;;;;;6.50;3.97;;;1.80;99.90;;;;;;5032067;28;20043;-70
2024/01/21 00:53:21;;;;;;;8.35;4.28;;;1.80;99.90;;;;;;5038795;28;20029;-70
2024/01/21 00:55:47;;;;;;;9.48;4.32;;;1.70;99.90;;;;;;5049734;28;20025;-69
2024/01/21 00:58:13;;;;;;;6.38;3.58;;;1.70;99.90;;;;;;5041485;28;20033;-70
2024/01/21 01:00:38;;;;;;;2.75;2.00;;;1.70;99.90;;;;;;5042696;28;20401;-69
2024/01/21 01:03:04;;;;;;;4.35;2.85;;;1.70;99.90;;;;;;5048140;28;20040;-70
2024/01/21 01:05:29;;;;;;;0.77;0.60;;;1.80;99.90;;;;;;5037136;28;20040;-69
2024/01/21 01:07:55;;;;;;;7.80;3.58;;;1.80;99.90;;;;;;5048185;28;20026;-70
2024/01/21 01:10:21;;;;;;;8.15;3.60;;;1.80;99.90;;;;;;5041179;28;20439;-70
2024/01/21 01:12:46;;;;;;;13.40;4.38;;;1.80;99.90;;;;;;5041546;28;20033;-69
2024/01/21 01:15:12;;;;;;;6.88;3.30;;;1.80;99.90;;;;;;5048952;28;20392;-70
2024/01/21 01:17:37;;;;;;;5.70;3.20;;;1.80;99.90;;;;;;5036546;28;20412;-70
2024/01/21 01:20:05;;;;;;;5.95;3.05;;;1.80;99.90;;;;;;5047141;28;20073;-70
2024/01/21 01:22:31;;;;;;;4.47;1.92;;;1.80;99.90;;;;;;5043481;28;20024;-69
2024/01/21 01:24:56;;;;;;;2.13;1.45;;;1.80;99.90;;;;;;5039139;28;20021;-70
2024/01/21 01:27:24;;;;;;;1.77;1.67;;;1.80;99.90;;;;;;5049439;28;20350;-69
2024/01/21 01:29:50;;;;;;;10.68;4.43;;;1.80;99.90;;;;;;5037755;28;20025;-70
2024/01/21 01:32:16;;;;;;;9.63;4.03;;;1.80;99.90;;;;;;5045372;28;20530;-70
2024/01/21 01:34:41;;;;;;;10.70;3.03;;;1.80;99.90;;;;;;5044772;28;20025;-69
2024/01/21 01:37:09;;;;;;;6.43;2.55;;;1.80;99.90;;;;;;5037822;28;20116;-69
2024/01/21 01:39:37;;;;;;;4.15;2.15;;;1.80;99.90;;;;;;5049099;28;20063;-70
2024/01/21 01:42:03;;;;;;;4.55;2.58;;;1.80;99.90;;;;;;5038990;28;20094;-70
2024/01/21 01:44:29;;;;;;;2.50;2.30;;;1.80;99.90;;;;;;5043123;28;20421;-69
2024/01/21 01:46:55;;;;;;;1.85;1.65;;;1.90;99.90;;;;;;5045899;28;20033;-69
2024/01/21 01:49:21;;;;;;;5.95;3.17;;;1.80;99.90;;;;;;5051916;28;20033;-69
2024/01/21 01:51:47;;;;;;;4.22;2.33;;;1.90;99.90;;;;;;5036630;28;20385;-69
2024/01/21 01:54:16;;;;;;;7.32;3.42;;;1.90;99.90;;;;;;5044738;28;20021;-70
2024/01/21 01:56:42;;;;;;;3.10;2.53;;;1.90;99.90;;;;;;5044244;28;20044;-69
2024/01/21 01:59:10;;;;;;;2.90;1.35;;;1.90;99.90;;;;;;5037403;28;20033;-69
2024/01/21 02:01:37;;;;;;;1.85;1.27;;;1.90;99.90;;;;;;5049007;28;20377;-69
2024/01/21 02:04:05;;;;;;;5.78;2.50;;;1.90;99.90;;;;;;5038740;28;20020;-69
2024/01/21 02:06:32;;;;;;;8.90;2.78;;;1.90;99.90;;;;;;5042331;28;20032;-69
2024/01/21 02:08:57;;;;;;;7.10;2.50;;;1.90;99.90;;;;;;5045969;28;20095;-70
2024/01/21 02:11:23;;;;;;;10.48;4.03;;;1.90;99.90;;;;;;5035942;28;20454;-70
2024/01/21 02:13:49;;;;;;;7.32;3.53;;;1.90;99.90;;;;;;5048232;28;20057;-70
2024/01/21 02:16:15;;;;;;;4.57;2.50;;;1.90;99.90;;;;;;5040251;28;20356;-70
2024/01/21 02:18:45;;;;;;;5.57;2.72;;;1.90;99.90;;;;;;5040924;28;20045;-69
2024/01/21 02:21:12;;;;;;;6.20;2.60;;;2.00;99.90;;;;;;5047939;28;20102;-69
2024/01/21 02:23:38;;;;;;;5.30;2.08;;;2.00;99.90;;;;;;5035701;28;20033;-69
2024/01/21 02:26:03;;;;;;;2.17;1.27;;;1.90;99.90;;;;;;5045364;28;20032;-69
2024/01/21 02:28:29;;;;;;;4.18;2.53;;;1.90;99.90;;;;;;5042221;28;20464;-70
2024/01/21 02:30:54;;;;;;;9.15;3.20;;;1.90;99.90;;;;;;5038598;28;20390;-70
2024/01/21 02:33:20;;;;;;;11.60;2.15;;;1.90;99.90;;;;;;5049113;28;20064;-69
2024/01/21 02:35:45;;;;;;;6.28;2.50;;;1.80;99.90;;;;;;5035611;28;20025;-70
2024/01/21 02:38:11;;;;;;;6.53;2.05;;;1.90;99.90;;;;;;5044740;28;20103;-70
2024/01/21 02:40:38;;;;;;;9.07;3.30;;;1.80;99.90;;;;;;5043125;28;20108;-69
2024/01/21 02:43:07;;;;;;;6.18;2.55;;;1.80;99.90;;;;;;5037442;28;20021;-70
2024/01/21 02:45:34;;;;;;;3.05;1.80;;;1.90;99.90;;;;;;5048683;28;20527;-70
2024/01/21 02:48:00;;;;;;;5.95;2.72;;;1.90;99.90;;;;;;5037904;28;20114;-70
2024/01/21 02:50:26;;;;;;;1.10;0.98;;;1.90;99.90;;;;;;5042119;28;20053;-70
2024/01/21 02:52:51;;;;;;;9.02;2.70;;;1.90;99.90;;;;;;5045029;28;20431;-70
2024/01/21 02:55:17;;;;;;;1.92;1.25;;;1.90;99.90;;;;;;5035414;28;20029;-70
2024/01/21 02:57:42;;;;;;;4.18;2.38;;;1.90;99.90;;;;;;5048435;28;20045;-69
2024/01/21 03:00:09;;;;;;;5.97;3.40;;;1.90;99.90;;;;;;5039209;28;20029;-70
2024/01/21 03:02:35;;;;;;;2.97;1.90;;;1.90;99.90;;;;;;5041326;28;20092;-70
2024/01/21 03:05:00;;;;;;;6.53;2.85;;;1.80;99.90;;;;;;5045708;28;20500;-69
2024/01/21 03:07:26;;;;;;;10.30;3.03;;;1.90;99.90;;;;;;5035335;28;20025;-69
2024/01/21 03:09:52;;;;;;;5.60;2.53;;;1.90;99.90;;;;;;5047278;28;20087;-70
2024/01/21 03:12:17;;;;;;;2.25;1.20;;;1.90;99.90;;;;;;5040134;28;20029;-69
2024/01/21 03:14:43;;;;;;;5.00;2.25;;;1.80;99.90;;;;;;5040075;28;20389;-70
2024/01/21 03:17:09;;;;;;;5.55;2.67;;;1.80;99.90;;;;;;5047275;28;20427;-69
2024/01/21 03:19:34;;;;;;;3.38;2.05;;;1.80;99.90;;;;;;5034935;28;20026;-69
2024/01/21 03:22:00;;;;;;;4.35;2.13;;;1.80;99.90;;;;;;5045865;28;20472;-70
2024/01/21 03:24:26;;;;;;;4.75;1.75;;;1.80;99.90;;;;;;5041195;28;20031;-69
2024/01/21 03:26:51;;;;;;;1.17;1.08;;;1.80;99.90;;;;;;5038843;28;20030;-70
2024/01/21 03:29:17;;;;;;;2.67;1.63;;;1.80;99.90;;;;;;5048536;28;20025;-69
2024/01/21 03:31:42;;;;;;;2.97;1.67;;;1.90;99.90;;;;;;5035213;28;20108;-70
2024/01/21 03:34:08;;;;;;;2.90;1.95;;;1.90;99.90;;;;;;5044181;28;20454;-70
2024/01/21 03:36:33;;;;;;;1.88;1.27;;;1.90;99.90;;;;;;5042526;28;20037;-70
2024/01/21 03:38:59;;;;;;;5.57;2.03;;;1.90;99.90;;;;;;5041274;28;20021;-70
2024/01/21 03:41:24;;;;;;;2.40;1.13;;;1.90;99.90;;;;;;5051974;28;20429;-70
2024/01/21 03:43:50;;;;;;;6.43;2.05;;;2.00;99.90;;;;;;5039774;28;20075;-70
2024/01/21 03:46:16;;;;;;;3.28;1.52;;;2.00;99.90;;;;;;5047099;28;20026;-69
2024/01/21 03:48:42;;;;;;;3.78;1.73;;;2.00;99.90;;;;;;5046437;28;20048;-70
2024/01/21 03:51:10;;;;;;;1.45;0.88;;;2.10;99.90;;;;;;5039592;28;20108;-69
2024/01/21 03:53:39;;;;;;;4.38;2.13;;;2.00;99.90;;;;;;5051548;28;20159;-70
2024/01/21 03:56:05;;;;;;;1.33;1.00;;;2.10;99.90;;;;;;5041571;28;20438;-70
2024/01/21 03:58:31;;;;;;;1.20;1.10;;;2.10;99.90;;;;;;5044754;28;20452;-70
2024/01/21 04:00:56;;;;;;;4.97;2.17;;;2.20;99.90;;;;;;5048650;28;20025;-70
2024/01/21 04:03:22;;;;;;;4.35;1.70;;;2.10;99.90;;;;;;5037942;28;20030;-70
2024/01/21 04:05:47;;;;;;;7.45;2.95;;;2.20;99.90;;;;;;5050882;28;20096;-70
2024/01/21 04:08:13;;;;;;;2.72;1.83;;;2.20;99.90;;;;;;5042577;28;20369;-70
2024/01/21 04:10:39;;;;;;;5.68;2.10;;;2.20;99.90;;;;;;5043534;28;20049;-69
2024/01/21 04:13:05;;;;;;;6.13;2.95;;;2.30;99.90;;;;;;5049291;28;20025;-69
2024/01/21 04:15:31;;;;;;;5.20;2.38;;;2.30;99.90;;;;;;5038009;28;20037;-70
2024/01/21 04:17:56;;;;;;;2.38;1.90;;;2.30;99.90;;;;;;5048534;28;20036;-70
2024/01/21 04:20:22;;;;;;;6.15;2.22;;;2.30;99.90;;;;;;5043242;28;20029;-70
2024/01/21 04:22:47;;;;;;;4.18;2.45;;;2.30;99.90;;;;;;5042047;28;20408;-69
2024/01/21 04:25:13;;;;;;;8.75;3.08;;;2.30;99.90;;;;;;5050537;28;20465;-69
2024/01/21 04:27:38;;;;;;;4.57;2.15;;;2.30;99.90;;;;;;5037470;28;20044;-70
2024/01/21 04:30:05;;;;;;;6.90;3.47;;;2.30;99.90;;;;;;5047897;28;20108;-70
2024/01/21 04:32:30;;;;;;;5.22;2.67;;;2.30;99.90;;;;;;5043859;28;20025;-69
2024/01/21 04:34:56;;;;;;;2.95;1.60;;;2.40;99.90;;;;;;5039348;28;20116;-70
2024/01/21 04:37:21;;;;;;;7.75;3.38;;;2.40;99.90;;;;;;5050800;28;20140;-70
2024/01/21 04:39:47;;;;;;;5.03;3.08;;;2.40;99.90;;;;;;5038402;28;20032;-70
2024/01/21 04:42:13;;;;;;;6.70;3.05;;;2.40;99.90;;;;;;5046499;28;20023;-71
2024/01/21 04:44:40;;;;;;;6.85;1.95;;;2.40;99.90;;;;;;5045289;28;20031;-69
2024/01/21 04:47:06;;;;;;;4.80;2.58;;;2.50;99.90;;;;;;5038616;28;20028;-70
2024/01/21 04:49:31;;;;;;;2.72;1.80;;;2.40;99.90;;;;;;5050082;28;20025;-70
2024/01/21 04:51:57;;;;;;;6.65;2.55;;;2.40;99.90;;;;;;5039538;28;20028;-70
2024/01/21 04:54:23;;;;;;;8.18;3.95;;;2.50;99.90;;;;;;5045183;28;20029;-70
2024/01/21 04:56:48;;;;;;;5.32;2.13;;;2.50;99.90;;;;;;5046318;28;20451;-69
2024/01/21 04:59:14;;;;;;;5.90;2.25;;;2.40;99.90;;;;;;5037800;28;20052;-70
2024/01/21 05:01:40;;;;;;;8.77;3.40;;;2.50;99.90;;;;;;5050249;28;20401;-70
2024/01/21 05:04:06;;;;;;;6.22;2.75;;;2.50;99.90;;;;;;5040688;28;20020;-70
2024/01/21 05:06:31;;;;;;;7.75;3.40;;;2.50;99.90;;;;;;5043734;28;20029;-70
2024/01/21 05:08:57;;;;;;;8.02;3.08;;;2.50;99.90;;;;;;5047527;28;20021;-70
2024/01/21 05:11:22;;;;;;;3.05;1.42;;;2.50;99.90;;;;;;5037079;28;20077;-70
2024/01/21 05:13:48;;;;;;;4.25;2.17;;;2.50;99.90;;;;;;5049909;28;20036;-69
2024/01/21 05:16:14;;;;;;;7.53;3.13;;;2.50;99.90;;;;;;5041086;28;20021;-70
2024/01/21 05:18:40;;;;;;;2.30;1.55;;;2.50;99.90;;;;;;5042273;28;20241;-70
2024/01/21 05:21:06;;;;;;;5.82;2.38;;;2.50;99.90;;;;;;5048248;28;20075;-70
2024/01/21 05:23:32;;;;;;;2.35;1.67;;;2.50;99.90;;;;;;5035684;28;20025;-70
2024/01/21 05:25:58;;;;;;;4.57;2.95;;;2.50;99.90;;;;;;5048039;28;20056;-70
2024/01/21 05:28:23;;;;;;;5.68;2.55;;;2.50;99.90;;;;;;5042760;28;20445;-69
2024/01/21 05:30:49;;;;;;;7.80;2.38;;;2.50;99.90;;;;;;5040741;28;20523;-70
2024/01/21 05:33:14;;;;;;;2.90;1.08;;;2.60;99.90;;;;;;5048140;28;20021;-69
2024/01/21 05:35:40;;;;;;;1.70;1.33;;;2.60;99.90;;;;;;5035467;28;20457;-70
2024/01/21 05:38:06;;;;;;;7.30;3.20;;;2.60;99.90;;;;;;5046673;28;20034;-70
2024/01/21 05:40:31;;;;;;;7.47;3.47;;;2.70;99.90;;;;;;5043453;28;20027;-70
2024/01/21 05:42:57;;;;;;;11.05;4.82;;;2.70;99.90;;;;;;5039663;28;20022;-70
2024/01/21 05:45:22;;;;;;;6.55;2.58;;;2.80;99.90;;;;;;5049158;28;20043;-69
2024/01/21 05:47:48;;;;;;;7.38;3.45;;;2.80;99.90;;;;;;5037334;28;20017;-69
2024/01/21 05:50:14;;;;;;;10.45;3.45;;;2.80;99.90;;;;;;5044859;28;20504;-70
2024/01/21 05:52:39;;;;;;;5.53;2.42;;;2.80;99.90;;;;;;5044640;28;20035;-70
2024/01/21 05:55:05;;;;;;;5.43;3.22;;;2.80;99.90;;;;;;5038322;28;20052;-70
2024/01/21 05:57:31;;;;;;;5.65;2.42;;;2.90;99.90;;;;;;5049108;28;20072;-69
2024/01/21 05:59:58;;;;;;;10.15;4.15;;;2.90;99.90;;;;;;5037653;28;20085;-69
2024/01/21 06:02:23;;;;;;;4.45;2.30;;;2.90;99.90;;;;;;5043374;28;20095;-69
2024/01/21 06:04:50;;;;;;;8.20;3.80;;;2.90;99.90;;;;;;5045530;28;20037;-69
2024/01/21 06:07:16;;;;;;;7.53;2.85;;;2.90;99.90;;;;;;5036594;28;20021;-69
2024/01/21 06:09:41;;;;;;;2.70;1.83;;;2.90;99.90;;;;;;5049010;28;20056;-69
2024/01/21 06:12:08;;;;;;;2.67;2.17;;;2.90;99.90;;;;;;5039655;28;20358;-70
2024/01/21 06:14:33;;;;;;;5.85;2.63;;;3.00;99.90;;;;;;5040703;28;20021;-70
2024/01/21 06:16:59;;;;;;;6.13;3.10;;;3.00;99.90;;;;;;5042785;28;20091;-71
2024/01/21 06:19:24;;;;;;;6.45;2.20;;;3.10;99.90;;;;;;5044035;28;20033;-70
2024/01/21 06:21:50;;;;;;;6.28;1.63;;;3.10;99.90;;;;;;5047933;28;20048;-69
2024/01/21 06:24:17;;;;;;;10.80;3.17;;;3.10;99.90;;;;;;5039375;28;20021;-69
2024/01/21 06:26:43;;;;;;;3.58;2.15;;;3.10;99.90;;;;;;5040621;28;20033;-70
2024/01/21 06:29:08;;;;;;;3.17;1.88;;;3.10;99.90;;;;;;5033728;28;20040;-70
2024/01/21 06:31:35;;;;;;;9.43;3.70;;;3.10;99.90;;;;;;5049022;28;20385;-69
2024/01/21 06:34:00;;;;;;;8.98;3.53;;;3.10;99.90;;;;;;5038452;28;20036;-69
2024/01/21 06:36:26;;;;;;;11.80;3.30;;;3.10;99.90;;;;;;5042968;28;20055;-69
2024/01/21 06:38:52;;;;;;;12.32;5.20;;;3.10;99.90;;;;;;5044868;28;20037;-69
2024/01/21 06:41:17;;;;;;;8.60;3.40;;;3.10;99.90;;;;;;5036105;28;20483;-69
2024/01/21 06:43:43;;;;;;;6.45;2.65;;;3.10;99.90;;;;;;5048711;28;20416;-69
2024/01/21 06:46:09;;;;;;;6.72;3.25;;;3.10;99.90;;;;;;5039053;28;20024;-70
2024/01/21 06:48:35;;;;;;;6.35;3.13;;;3.10;99.90;;;;;;5046522;28;20036;-69
2024/01/21 06:51:04;;;;;;;3.55;2.00;;;3.10;99.90;;;;;;5046544;28;20108;-70
2024/01/21 06:53:30;;;;;;;8.60;3.28;;;3.10;99.90;;;;;;5035364;28;20466;-69
2024/01/21 06:55:55;;;;;;;8.77;3.45;;;3.20;99.90;;;;;;5047394;28;20021;-70
2024/01/21 06:58:21;;;;;;;8.98;2.70;;;3.10;99.90;;;;;;5030103;28;20037;-70
2024/01/21 07:00:51;;;;;;;5.38;2.17;;;3.10;99.90;;;;;;5044535;28;20116;-70
2024/01/21 07:03:17;;;;;;;8.85;3.85;;;3.00;99.90;;;;;;5035621;28;20378;-70
2024/01/21 07:05:43;;;;;;;1.83;1.67;;;3.00;99.90;;;;;;5019538;28;20048;-70
2024/01/21 07:08:08;;;;;;;12.50;3.45;;;2.90;99.90;;;;;;5046715;28;20068;-69
2024/01/21 07:10:34;;;;;;;7.47;3.42;;;2.90;99.90;;;;;;5042219;28;20408;-69
2024/01/21 07:13:00;;;;;;;6.43;3.50;;;2.90;99.90;;;;;;5040445;28;20030;-69
2024/01/21 07:15:25;;;;;;;10.25;3.88;;;2.90;99.90;;;;;;5052659;28;20036;-69
2024/01/21 07:17:51;;;;;;;17.77;5.20;;;2.90;99.90;;;;;;5040651;28;20044;-69
2024/01/21 07:20:16;;;;;;;3.08;1.73;;;2.90;99.90;;;;;;5047175;28;20488;-69
2024/01/21 07:22:42;;;;;;;8.43;2.78;;;3.00;99.90;;;;;;5047244;28;20029;-70
2024/01/21 07:25:08;;;;;;;8.27;2.88;;;3.00;99.90;;;;;;5040559;28;20030;-69
2024/01/21 07:27:34;;;;;;;0.68;0.68;;;3.10;99.90;;;;;;5052213;28;20032;-70
2024/01/21 07:30:00;;;;;;;3.30;1.73;;;3.10;99.90;;;;;;5041184;28;20017;-68
2024/01/21 07:32:25;;;;;;;1.63;1.27;;;3.20;99.90;;;;;;5045001;28;20507;-70
2024/01/21 07:34:51;;;;;;;4.13;2.67;;;3.20;99.90;;;;;;5048688;28;20033;-70
2024/01/21 07:37:16;;;;;;;6.97;2.58;;;3.30;99.90;;;;;;5038917;28;20457;-70
2024/01/21 07:39:42;;;;;;;7.82;3.25;;;3.40;99.90;;;;;;5052411;28;20084;-69
2024/01/21 07:42:07;;;;;;;9.32;3.38;;;3.40;99.90;;;;;;5042416;28;20083;-70
2024/01/21 07:44:33;;;;;;;8.80;3.92;;;3.40;99.90;;;;;;5044729;28;20057;-70
2024/01/21 07:46:59;;;;;;;8.23;4.20;;;3.40;99.90;;;;;;5048983;28;20028;-70
2024/01/21 07:49:25;;;;;;;6.18;2.70;;;3.40;99.90;;;;;;5054271;28;20099;-70
2024/01/21 07:51:50;;;;;;;5.65;2.72;;;3.50;99.90;;;;;;5039794;28;20032;-70
2024/01/21 07:54:16;;;;;;;2.20;1.83;;;3.50;99.90;;;;;;5046915;28;20075;-70
2024/01/21 07:56:42;;;;;;;10.32;4.10;;;3.50;99.90;;;;;;5046621;28;20033;-69
2024/01/21 07:59:07;;;;;;;10.70;3.67;;;3.60;99.90;;;;;;5040095;28;20060;-70
2024/01/21 08:01:33;;;;;;;7.60;3.13;;;3.60;99.90;;;;;;5051566;28;20041;-70
2024/01/21 08:03:58;;;;;;;3.92;2.08;;;3.70;99.90;;;;;;5040541;28;20029;-70
2024/01/21 08:06:24;;;;;;;4.85;1.92;;;3.70;99.90;;;;;;5045653;28;20103;-69
2024/01/21 08:08:50;;;;;;;13.27;3.22;;;3.70;99.90;;;;;;5047831;28;20056;-70
2024/01/21 08:11:16;;;;;;;9.23;4.70;;;3.80;99.90;;;;;;5038383;28;20485;-70
2024/01/21 08:13:42;;;;;;;3.55;2.13;;;3.80;99.90;;;;;;5051387;28;20033;-70
2024/01/21 08:16:07;;;;;;;12.43;3.33;;;3.90;99.90;;;;;;5041791;28;20040;-70
2024/01/21 08:18:34;;;;;;;3.58;1.50;;;3.90;99.90;;;;;;5044147;28;20045;-69
2024/01/21 08:20:59;;;;;;;3.92;1.70;;;3.90;99.90;;;;;;5035027;28;20481;-69
2024/01/21 08:23:25;;;;;;;9.13;3.00;;;4.00;99.90;;;;;;5050152;28;20028;-69
2024/01/21 08:25:51;;;;;;;5.65;2.53;;;4.00;99.90;;;;;;5038631;28;20451;-71
2024/01/21 08:28:16;;;;;;;5.13;2.40;;;4.00;99.90;;;;;;5045559;28;20478;-70
2024/01/21 08:30:42;;;;;;;10.38;4.32;;;4.10;99.90;;;;;;5034163;28;20029;-70
2024/01/21 08:33:08;;;;;;;10.40;4.03;;;4.10;99.90;;;;;;5048223;28;20029;-69
2024/01/21 08:35:33;;;;;;;3.58;3.20;;;4.10;99.90;;;;;;5037884;28;20029;-70
2024/01/21 08:38:00;;;;;;;11.50;4.75;;;4.20;99.90;;;;;;5048270;28;20080;-70
2024/01/21 08:40:25;;;;;;;10.73;3.72;;;4.20;99.90;;;;;;5043482;28;20025;-70
2024/01/21 08:42:51;;;;;;;15.13;5.10;;;4.20;99.90;;;;;;5041277;28;20385;-70
2024/01/21 08:45:16;;;;;;;13.02;4.07;;;4.20;99.90;;;;;;5050408;28;20032;-70
2024/01/21 08:47:42;;;;;;;9.80;3.97;;;4.30;99.90;;;;;;5037421;28;20029;-70
2024/01/21 08:50:08;;;;;;;5.63;2.38;;;4.30;99.90;;;;;;5045778;28;20040;-69
2024/01/21 08:52:33;;;;;;;10.40;3.17;;;4.30;99.90;;;;;;5044839;28;20365;-69
2024/01/21 08:54:59;;;;;;;13.43;3.63;;;4.40;99.90;;;;;;5040171;28;20083;-69
2024/01/21 08:57:25;;;;;;;1.67;1.58;;;4.40;99.90;;;;;;5050567;28;20046;-69
2024/01/21 08:59:51;;;;;;;12.50;4.88;;;4.50;99.90;;;;;;5032979;28;20230;-69
2024/01/21 09:02:18;;;;;;;9.20;3.58;;;4.60;99.90;;;;;;5043646;28;20104;-69
2024/01/21 09:04:44;;;;;;;6.68;3.35;;;4.60;99.90;;;;;;5040471;28;20021;-70
2024/01/21 09:07:09;;;;;;;5.38;3.28;;;4.70;99.90;;;;;;5048840;28;20036;-69
2024/01/21 09:09:35;;;;;;;6.20;3.28;;;4.80;99.90;;;;;;5036135;28;20390;-69
2024/01/21 09:12:01;;;;;;;6.63;2.88;;;4.90;99.90;;;;;;5047522;28;20112;-69
2024/01/21 09:14:27;;;;;;;8.00;2.78;;;4.90;99.90;;;;;;5043327;28;20021;-70
2024/01/21 09:16:52;;;;;;;5.75;3.20;;;5.00;99.90;;;;;;5040212;28;20096;-69
2024/01/21 09:19:18;;;;;;;8.60;3.33;;;5.10;99.90;;;;;;5048500;28;20457;-69
2024/01/21 09:21:44;;;;;;;5.90;2.90;;;5.10;99.90;;;;;;5036939;28;20106;-69
2024/01/21 09:24:11;;;;;;;5.70;2.10;;;5.20;99.90;;;;;;5039508;28;20052;-69
2024/01/21 09:26:37;;;;;;;4.15;2.35;;;5.10;99.90;;;;;;5033101;28;20021;-69
2024/01/21 09:29:03;;;;;;;3.88;2.00;;;5.10;99.90;;;;;;5047729;28;20083;-69
2024/01/21 09:31:29;;;;;;;11.80;5.18;;;5.20;99.90;;;;;;5035991;28;20083;-69
2024/01/21 09:33:56;;;;;;;5.20;3.00;;;5.20;99.90;;;;;;5047974;28;20100;-69
2024/01/21 09:36:21;;;;;;;7.47;2.97;;;5.20;99.90;;;;;;5041644;28;20197;-70
2024/01/21 09:38:47;;;;;;;10.52;3.80;;;5.20;99.90;;;;;;5040444;28;20518;-69
2024/01/21 09:41:42;;;;;;;11.45;5.35;;;5.20;99.90;;;;;;5047755;28;20033;-69
2024/01/21 09:44:08;;;;;;;11.50;6.18;;;5.30;99.90;;;;;;5027240;28;20446;-69
2024/01/21 09:46:34;;;;;;;12.70;5.10;;;5.40;99.90;;;;;;5042405;28;20024;-70
2024/01/21 09:49:03;;;;;;;7.65;3.80;;;5.40;99.90;;;;;;5047158;28;20017;-69
2024/01/21 09:51:32;;;;;;;5.35;2.50;;;5.50;99.90;;;;;;5036399;28;20029;-70
2024/01/21 09:54:00;;;;;;;8.13;3.97;;;5.50;99.90;;;;;;5047216;28;20055;-70
2024/01/21 09:56:26;;;;;;;12.80;5.03;;;5.60;99.90;;;;;;5042594;28;20445;-70
2024/01/21 09:58:52;;;;;;;4.03;1.77;;;5.60;99.90;;;;;;5039539;28;20047;-70
2024/01/21 10:01:18;;;;;;;5.25;3.08;;;5.60;99.90;;;;;;5047807;28;20385;-70
2024/01/21 10:03:45;;;;;;;11.25;4.00;;;5.60;99.90;;;;;;5036048;28;20049;-70
2024/01/21 10:06:11;;;;;;;6.78;2.92;;;5.60;99.90;;;;;;5045233;28;20100;-70
2024/01/21 10:08:39;;;;;;;8.25;3.03;;;5.60;99.90;;;;;;5043441;28;20537;-70
2024/01/21 10:11:05;;;;;;;9.77;3.92;;;5.70;99.90;;;;;;5037855;28;20053;-70
2024/01/21 10:13:31;;;;;;;15.18;5.93;;;5.70;99.90;;;;;;5047692;28;20488;-70
2024/01/21 10:16:00;;;;;;;5.20;2.42;;;5.70;99.90;;;;;;5038084;28;20334;-70
2024/01/21 10:18:28;;;;;;;10.80;3.90;;;5.60;99.90;;;;;;5042633;28;20490;-69
2024/01/21 10:20:55;;;;;;;13.25;4.47;;;5.70;99.90;;;;;;5045900;28;20032;-69
2024/01/21 10:23:21;;;;;;;1.75;1.50;;;5.70;99.90;;;;;;5035737;28;20037;-70
2024/01/21 10:25:48;;;;;;;10.60;4.47;;;5.70;99.90;;;;;;5048561;28;20155;-70
2024/01/21 10:28:14;;;;;;;8.45;4.22;;;5.80;99.90;;;;;;5040267;28;20052;-70
2024/01/21 10:30:42;;;;;;;5.82;2.35;;;5.80;99.90;;;;;;5040672;28;20071;-70
2024/01/21 10:33:08;;;;;;;9.10;4.35;;;5.80;99.90;;;;;;5046211;28;20116;-70
2024/01/21 10:35:34;;;;;;;3.67;2.13;;;5.80;99.90;;;;;;5035065;28;20521;-70
2024/01/21 10:38:05;;;;;;;7.13;2.75;;;5.80;99.90;;;;;;5045874;28;20034;-70
2024/01/21 10:40:31;;;;;;;4.83;2.83;;;5.90;99.90;;;;;;5042621;28;20112;-70
2024/01/21 10:42:59;;;;;;;8.98;3.60;;;6.00;99.90;;;;;;5038187;28;20338;-69
2024/01/21 10:45:29;;;;;;;13.40;5.07;;;6.00;99.90;;;;;;5031973;28;20061;-70
2024/01/21 10:47:57;;;;;;;3.28;2.58;;;6.10;99.90;;;;;;5052430;28;20040;-69
2024/01/21 10:50:23;;;;;;;6.85;2.67;;;6.10;99.90;;;;;;5047355;28;20481;-69
2024/01/21 10:52:50;;;;;;;9.18;4.82;;;6.20;99.90;;;;;;5048949;28;20032;-69
2024/01/21 10:55:16;;;;;;;15.57;5.43;;;6.20;99.90;;;;;;5038163;28;20026;-70
2024/01/21 10:57:42;;;;;;;7.88;3.13;;;6.20;99.90;;;;;;5052310;28;20103;-70
2024/01/21 11:00:09;;;;;;;9.05;3.90;;;6.10;99.90;;;;;;5042964;28;20031;-69
2024/01/21 11:02:35;;;;;;;10.07;4.07;;;6.20;99.90;;;;;;5045022;28;20075;-69
2024/01/21 11:05:01;;;;;;;10.80;5.15;;;6.20;99.90;;;;;;5050369;28;20029;-69
2024/01/21 11:07:27;;;;;;;1.85;1.50;;;6.30;99.90;;;;;;5039363;28;20026;-70
2024/01/21 11:09:54;;;;;;;11.15;4.65;;;6.30;99.90;;;;;;5050654;28;20449;-70
2024/01/21 11:12:21;;;;;;;11.18;5.30;;;6.40;99.90;;;;;;5044318;28;20488;-71
2024/01/21 11:14:47;;;;;;;6.57;4.75;;;6.40;99.90;;;;;;5043712;28;20056;-70
2024/01/21 11:17:22;;;;;;;13.23;5.70;;;6.40;99.90;;;;;;5051732;28;20037;-70
2024/01/21 11:19:47;;;;;;;2.15;1.83;;;6.40;99.90;;;;;;5024318;28;20521;-70
2024/01/21 11:22:14;;;;;;;7.45;3.20;;;6.40;99.90;;;;;;5048472;28;20101;-70
2024/01/21 11:24:43;;;;;;;4.50;2.55;;;6.40;99.90;;;;;;5046853;28;20464;-69
2024/01/21 11:27:22;;;;;;;10.57;4.88;;;6.50;99.90;;;;;;5039587;28;20057;-70
2024/01/21 11:29:49;;;;;;;10.70;4.13;;;6.50;99.90;;;;;;5024082;28;20033;-70
2024/01/21 11:32:19;;;;;;;11.27;5.15;;;6.50;99.90;;;;;;5031210;28;20519;-71
2024/01/21 11:34:45;;;;;;;3.17;2.03;;;6.60;99.90;;;;;;5042981;28;20034;-71
2024/01/21 11:37:14;;;;;;;7.00;3.25;;;6.70;99.90;;;;;;5050869;28;20033;-71
2024/01/21 11:39:41;;;;;;;12.13;2.55;;;6.70;99.90;;;;;;5038105;28;20455;-69
2024/01/21 11:42:06;;;;;;;3.13;2.17;;;6.80;99.90;;;;;;5048406;28;20036;-69
2024/01/21 11:44:33;;;;;;;4.22;1.83;;;6.80;99.90;;;;;;5046023;28;20025;-69
2024/01/21 11:47:01;;;;;;;5.00;2.88;;;6.90;99.90;;;;;;5041398;28;20044;-71
2024/01/21 11:49:28;;;;;;;9.10;3.63;;;6.90;99.90;;;;;;5051894;28;20390;-70
2024/01/21 11:51:53;;;;;;;13.07;5.35;;;6.90;99.90;;;;;;5039570;28;20492;-70
2024/01/21 11:54:20;;;;;;;6.82;3.22;;;7.00;99.90;;;;;;5046260;28;20026;-70
2024/01/21 11:56:45;;;;;;;5.88;3.30;;;7.00;99.90;;;;;;5046925;28;20056;-70
2024/01/21 11:59:12;;;;;;;4.65;2.55;;;7.00;99.90;;;;;;5038085;28;20138;-69
2024/01/21 12:01:39;;;;;;;5.72;2.65;;;7.00;99.90;;;;;;5051709;28;20030;-70
2024/01/21 12:04:06;;;;;;;3.15;2.42;;;7.00;99.90;;;;;;5041655;28;20032;-69
2024/01/21 12:06:34;;;;;;;17.25;4.78;;;7.10;99.90;;;;;;5044115;28;20517;-70
2024/01/21 12:09:01;;;;;;;13.40;4.43;;;7.10;99.90;;;;;;5049205;28;20029;-69
2024/01/21 12:11:30;;;;;;;9.55;3.03;;;7.20;99.90;;;;;;5038384;28;20056;-69
2024/01/21 12:13:55;;;;;;;4.78;2.38;;;7.20;99.90;;;;;;5047543;28;20108;-70
2024/01/21 12:16:21;;;;;;;6.53;3.65;;;7.20;99.90;;;;;;5050934;28;20109;-70
2024/01/21 12:18:47;;;;;;;5.85;3.33;;;7.20;99.90;;;;;;5042376;28;20116;-70
2024/01/21 12:21:13;;;;;;;5.85;2.55;;;7.20;99.90;;;;;;5050308;28;20031;-69
2024/01/21 12:23:45;;;;;;;7.75;2.78;;;7.20;99.90;;;;;;5037611;28;20033;-69
2024/01/21 12:26:19;;;;;;;7.93;3.83;;;7.20;99.90;;;;;;5036494;28;20017;-70
2024/01/21 12:28:57;;;;;;;5.72;3.38;;;7.20;99.90;;;;;;5035279;28;20041;-70
2024/01/21 12:31:41;;;;;;;2.83;2.30;;;7.30;99.90;;;;;;5035366;28;20017;-69
2024/01/21 12:34:09;;;;;;;7.43;3.05;;;7.30;99.90;;;;;;5034180;28;20083;-69
2024/01/21 12:36:45;;;;;;;12.98;4.80;;;7.30;99.90;;;;;;5034184;28;20104;-70
2024/01/21 12:39:12;;;;;;;3.17;2.08;;;7.30;99.90;;;;;;5034373;28;20033;-70
2024/01/21 12:41:38;;;;;;;8.75;4.22;;;7.30;99.90;;;;;;5034269;28;20490;-70
2024/01/21 12:44:05;;;;;;;6.38;3.00;;;7.40;99.90;;;;;;5034202;28;20068;-70
2024/01/21 12:46:30;;;;;;;5.13;3.33;;;7.40;99.90;;;;;;5034141;28;20511;-70
2024/01/21 12:48:56;;;;;;;1.55;1.45;;;7.40;99.90;;;;;;5033851;28;20025;-69
2024/01/21 12:51:22;;;;;;;4.05;1.80;;;7.40;99.90;;;;;;5033751;28;20033;-70
2024/01/21 12:53:50;;;;;;;5.93;2.60;;;7.50;99.90;;;;;;5033905;28;20025;-70